sensor_id;sensor_type;location;lat;lon;timestamp;P1;durP1;ratioP1;P2;durP2;ratioP2
69323;SDS011;56470;47.350;8.718;2022-10-14T00:01:24;6.93;;;3.90;;
69323;SDS011;56470;47.350;8.718;2022-10-14T00:03:50;7.43;;;3.20;;
69323;SDS011;56470;47.350;8.718;2022-10-14T00:06:18;6.47;;;3.42;;
69323;SDS011;56470;47.350;8.718;2022-10-14T00:08:48;7.05;;;3.40;;
69323;SDS011;56470;47.350;8.718;2022-10-14T00:11:31;6.00;;;3.17;;
69323;SDS011;56470;47.350;8.718;2022-10-14T00:14:00;7.40;;;2.95;;
69323;SDS011;56470;47.350;8.718;2022-10-14T00:16:29;7.73;;;3.43;;
69323;SDS011;56470;47.350;8.718;2022-10-14T00:19:00;7.32;;;3.15;;
69323;SDS011;56470;47.350;8.718;2022-10-14T00:21:26;5.88;;;3.40;;
69323;SDS011;56470;47.350;8.718;2022-10-14T00:23:53;7.47;;;3.40;;
69323;SDS011;56470;47.350;8.718;2022-10-14T00:26:29;7.93;;;2.90;;
69323;SDS011;56470;47.350;8.718;2022-10-14T00:28:56;5.07;;;3.10;;
69323;SDS011;56470;47.350;8.718;2022-10-14T00:31:22;6.13;;;3.38;;
69323;SDS011;56470;47.350;8.718;2022-10-14T00:33:48;5.53;;;2.95;;
69323;SDS011;56470;47.350;8.718;2022-10-14T00:36:14;5.20;;;3.10;;
69323;SDS011;56470;47.350;8.718;2022-10-14T00:38:41;5.55;;;2.90;;
69323;SDS011;56470;47.350;8.718;2022-10-14T00:41:07;5.70;;;3.07;;
69323;SDS011;56470;47.350;8.718;2022-10-14T00:46:39;6.32;;;2.90;;
69323;SDS011;56470;47.350;8.718;2022-10-14T00:49:07;4.95;;;2.60;;
69323;SDS011;56470;47.350;8.718;2022-10-14T00:51:37;5.33;;;2.67;;
69323;SDS011;56470;47.350;8.718;2022-10-14T00:54:05;4.90;;;2.38;;
69323;SDS011;56470;47.350;8.718;2022-10-14T00:56:31;7.32;;;2.60;;
69323;SDS011;56470;47.350;8.718;2022-10-14T00:58:57;5.00;;;2.92;;
69323;SDS011;56470;47.350;8.718;2022-10-14T01:01:24;5.53;;;2.13;;
69323;SDS011;56470;47.350;8.718;2022-10-14T01:03:50;7.53;;;2.73;;
69323;SDS011;56470;47.350;8.718;2022-10-14T01:06:18;5.23;;;2.50;;
69323;SDS011;56470;47.350;8.718;2022-10-14T01:09:02;4.53;;;2.00;;
69323;SDS011;56470;47.350;8.718;2022-10-14T01:11:36;4.38;;;2.70;;
69323;SDS011;56470;47.350;8.718;2022-10-14T01:16:40;4.77;;;2.43;;
69323;SDS011;56470;47.350;8.718;2022-10-14T01:21:59;4.87;;;2.30;;
69323;SDS011;56470;47.350;8.718;2022-10-14T01:30:34;5.63;;;2.80;;
69323;SDS011;56470;47.350;8.718;2022-10-14T01:38:21;5.75;;;2.80;;
69323;SDS011;56470;47.350;8.718;2022-10-14T01:40:53;6.47;;;3.53;;
69323;SDS011;56470;47.350;8.718;2022-10-14T01:43:22;9.35;;;3.50;;
69323;SDS011;56470;47.350;8.718;2022-10-14T01:45:51;6.88;;;3.10;;
69323;SDS011;56470;47.350;8.718;2022-10-14T01:48:18;6.87;;;3.17;;
69323;SDS011;56470;47.350;8.718;2022-10-14T01:50:48;6.13;;;3.15;;
69323;SDS011;56470;47.350;8.718;2022-10-14T01:53:18;7.90;;;3.35;;
69323;SDS011;56470;47.350;8.718;2022-10-14T01:55:48;6.40;;;2.83;;
69323;SDS011;56470;47.350;8.718;2022-10-14T01:58:17;8.18;;;2.50;;
69323;SDS011;56470;47.350;8.718;2022-10-14T02:00:47;6.00;;;2.90;;
69323;SDS011;56470;47.350;8.718;2022-10-14T02:03:12;7.47;;;3.63;;
69323;SDS011;56470;47.350;8.718;2022-10-14T02:05:40;6.03;;;3.70;;
69323;SDS011;56470;47.350;8.718;2022-10-14T02:08:11;7.32;;;3.85;;
69323;SDS011;56470;47.350;8.718;2022-10-14T02:13:18;6.55;;;3.20;;
69323;SDS011;56470;47.350;8.718;2022-10-14T02:16:29;5.80;;;3.45;;
69323;SDS011;56470;47.350;8.718;2022-10-14T02:22:00;9.05;;;3.60;;
69323;SDS011;56470;47.350;8.718;2022-10-14T02:24:31;6.57;;;3.03;;
69323;SDS011;56470;47.350;8.718;2022-10-14T02:27:01;6.45;;;3.17;;
69323;SDS011;56470;47.350;8.718;2022-10-14T02:29:31;6.35;;;3.55;;
69323;SDS011;56470;47.350;8.718;2022-10-14T02:32:00;7.53;;;3.08;;
69323;SDS011;56470;47.350;8.718;2022-10-14T02:34:28;9.57;;;3.55;;
69323;SDS011;56470;47.350;8.718;2022-10-14T02:36:53;6.50;;;3.40;;
69323;SDS011;56470;47.350;8.718;2022-10-14T02:39:21;9.02;;;3.83;;
69323;SDS011;56470;47.350;8.718;2022-10-14T02:41:52;7.53;;;3.00;;
69323;SDS011;56470;47.350;8.718;2022-10-14T02:44:17;6.65;;;3.03;;
69323;SDS011;56470;47.350;8.718;2022-10-14T02:46:43;6.37;;;2.67;;
69323;SDS011;56470;47.350;8.718;2022-10-14T02:49:08;10.63;;;2.93;;
69323;SDS011;56470;47.350;8.718;2022-10-14T02:51:34;6.55;;;2.83;;
69323;SDS011;56470;47.350;8.718;2022-10-14T02:53:59;5.07;;;2.20;;
69323;SDS011;56470;47.350;8.718;2022-10-14T02:56:26;5.18;;;2.55;;
69323;SDS011;56470;47.350;8.718;2022-10-14T02:58:51;5.73;;;2.47;;
69323;SDS011;56470;47.350;8.718;2022-10-14T03:01:17;3.70;;;1.85;;
69323;SDS011;56470;47.350;8.718;2022-10-14T03:03:42;6.97;;;2.60;;
69323;SDS011;56470;47.350;8.718;2022-10-14T03:06:07;4.97;;;2.43;;
69323;SDS011;56470;47.350;8.718;2022-10-14T03:08:33;6.60;;;1.60;;
69323;SDS011;56470;47.350;8.718;2022-10-14T03:10:59;4.22;;;2.25;;
69323;SDS011;56470;47.350;8.718;2022-10-14T03:13:24;5.27;;;2.30;;
69323;SDS011;56470;47.350;8.718;2022-10-14T03:15:49;7.23;;;2.37;;
69323;SDS011;56470;47.350;8.718;2022-10-14T03:18:15;7.27;;;2.33;;
69323;SDS011;56470;47.350;8.718;2022-10-14T03:20:43;4.80;;;2.30;;
69323;SDS011;56470;47.350;8.718;2022-10-14T03:23:10;7.25;;;2.28;;
69323;SDS011;56470;47.350;8.718;2022-10-14T03:25:38;4.23;;;2.20;;
69323;SDS011;56470;47.350;8.718;2022-10-14T03:28:04;4.03;;;2.20;;
69323;SDS011;56470;47.350;8.718;2022-10-14T03:30:29;4.00;;;2.37;;
69323;SDS011;56470;47.350;8.718;2022-10-14T03:32:55;6.30;;;2.33;;
69323;SDS011;56470;47.350;8.718;2022-10-14T03:35:20;3.40;;;2.10;;
69323;SDS011;56470;47.350;8.718;2022-10-14T03:37:45;4.13;;;1.90;;
69323;SDS011;56470;47.350;8.718;2022-10-14T03:40:11;3.87;;;1.93;;
69323;SDS011;56470;47.350;8.718;2022-10-14T03:42:36;3.33;;;1.52;;
69323;SDS011;56470;47.350;8.718;2022-10-14T03:45:02;4.57;;;1.67;;
69323;SDS011;56470;47.350;8.718;2022-10-14T03:47:27;3.60;;;1.43;;
69323;SDS011;56470;47.350;8.718;2022-10-14T03:49:53;5.65;;;1.60;;
69323;SDS011;56470;47.350;8.718;2022-10-14T03:52:18;4.00;;;1.83;;
69323;SDS011;56470;47.350;8.718;2022-10-14T03:54:43;5.10;;;1.83;;
69323;SDS011;56470;47.350;8.718;2022-10-14T03:57:09;3.57;;;1.60;;
69323;SDS011;56470;47.350;8.718;2022-10-14T03:59:34;5.57;;;1.63;;
69323;SDS011;56470;47.350;8.718;2022-10-14T04:01:59;4.73;;;1.73;;
69323;SDS011;56470;47.350;8.718;2022-10-14T04:04:25;4.17;;;1.20;;
69323;SDS011;56470;47.350;8.718;2022-10-14T04:06:50;5.23;;;1.70;;
69323;SDS011;56470;47.350;8.718;2022-10-14T04:09:15;4.28;;;1.35;;
69323;SDS011;56470;47.350;8.718;2022-10-14T04:11:40;3.87;;;1.70;;
69323;SDS011;56470;47.350;8.718;2022-10-14T04:14:06;4.77;;;2.00;;
69323;SDS011;56470;47.350;8.718;2022-10-14T04:16:31;3.37;;;1.63;;
69323;SDS011;56470;47.350;8.718;2022-10-14T04:18:57;6.10;;;1.73;;
69323;SDS011;56470;47.350;8.718;2022-10-14T04:21:23;3.45;;;1.50;;
69323;SDS011;56470;47.350;8.718;2022-10-14T04:23:49;4.77;;;1.63;;
69323;SDS011;56470;47.350;8.718;2022-10-14T04:26:14;4.00;;;1.73;;
69323;SDS011;56470;47.350;8.718;2022-10-14T04:28:39;4.53;;;1.80;;
69323;SDS011;56470;47.350;8.718;2022-10-14T04:31:05;7.57;;;2.10;;
69323;SDS011;56470;47.350;8.718;2022-10-14T04:33:30;3.70;;;1.60;;
69323;SDS011;56470;47.350;8.718;2022-10-14T04:36:03;4.13;;;1.70;;
69323;SDS011;56470;47.350;8.718;2022-10-14T04:38:30;4.85;;;1.70;;
69323;SDS011;56470;47.350;8.718;2022-10-14T04:40:56;4.17;;;1.47;;
69323;SDS011;56470;47.350;8.718;2022-10-14T04:43:22;4.25;;;1.95;;
69323;SDS011;56470;47.350;8.718;2022-10-14T04:45:47;4.03;;;2.10;;
69323;SDS011;56470;47.350;8.718;2022-10-14T04:48:13;6.03;;;2.90;;
69323;SDS011;56470;47.350;8.718;2022-10-14T04:50:39;3.80;;;2.10;;
69323;SDS011;56470;47.350;8.718;2022-10-14T04:53:05;5.93;;;2.13;;
69323;SDS011;56470;47.350;8.718;2022-10-14T04:55:30;10.63;;;4.83;;
69323;SDS011;56470;47.350;8.718;2022-10-14T04:57:55;4.40;;;2.00;;
69323;SDS011;56470;47.350;8.718;2022-10-14T05:00:20;7.93;;;1.93;;
69323;SDS011;56470;47.350;8.718;2022-10-14T05:02:46;8.57;;;1.70;;
69323;SDS011;56470;47.350;8.718;2022-10-14T05:05:12;5.30;;;2.03;;
69323;SDS011;56470;47.350;8.718;2022-10-14T05:07:38;3.63;;;1.57;;
69323;SDS011;56470;47.350;8.718;2022-10-14T05:10:04;3.55;;;1.50;;
69323;SDS011;56470;47.350;8.718;2022-10-14T05:12:30;7.53;;;2.10;;
69323;SDS011;56470;47.350;8.718;2022-10-14T05:14:55;4.23;;;2.43;;
69323;SDS011;56470;47.350;8.718;2022-10-14T05:17:21;6.17;;;2.03;;
69323;SDS011;56470;47.350;8.718;2022-10-14T05:19:49;3.60;;;1.90;;
69323;SDS011;56470;47.350;8.718;2022-10-14T05:22:15;4.85;;;1.73;;
69323;SDS011;56470;47.350;8.718;2022-10-14T05:24:40;7.37;;;2.27;;
69323;SDS011;56470;47.350;8.718;2022-10-14T05:27:05;4.32;;;2.00;;
69323;SDS011;56470;47.350;8.718;2022-10-14T05:29:31;3.93;;;1.80;;
69323;SDS011;56470;47.350;8.718;2022-10-14T05:31:56;4.13;;;2.10;;
69323;SDS011;56470;47.350;8.718;2022-10-14T05:34:21;3.93;;;1.47;;
69323;SDS011;56470;47.350;8.718;2022-10-14T05:36:47;4.93;;;1.67;;
69323;SDS011;56470;47.350;8.718;2022-10-14T05:39:12;5.23;;;2.27;;
69323;SDS011;56470;47.350;8.718;2022-10-14T05:41:37;4.63;;;2.03;;
69323;SDS011;56470;47.350;8.718;2022-10-14T05:44:03;3.10;;;1.50;;
69323;SDS011;56470;47.350;8.718;2022-10-14T05:46:29;4.30;;;1.90;;
69323;SDS011;56470;47.350;8.718;2022-10-14T05:48:55;4.30;;;2.07;;
69323;SDS011;56470;47.350;8.718;2022-10-14T05:51:21;3.33;;;1.77;;
69323;SDS011;56470;47.350;8.718;2022-10-14T05:53:47;4.20;;;2.10;;
69323;SDS011;56470;47.350;8.718;2022-10-14T05:56:12;4.57;;;1.40;;
69323;SDS011;56470;47.350;8.718;2022-10-14T05:58:38;6.40;;;1.95;;
69323;SDS011;56470;47.350;8.718;2022-10-14T06:01:04;3.47;;;2.10;;
69323;SDS011;56470;47.350;8.718;2022-10-14T06:03:31;3.30;;;2.00;;
69323;SDS011;56470;47.350;8.718;2022-10-14T06:05:56;4.17;;;1.80;;
69323;SDS011;56470;47.350;8.718;2022-10-14T06:08:22;5.07;;;2.30;;
69323;SDS011;56470;47.350;8.718;2022-10-14T06:10:48;3.60;;;1.87;;
69323;SDS011;56470;47.350;8.718;2022-10-14T06:13:14;3.03;;;1.70;;
69323;SDS011;56470;47.350;8.718;2022-10-14T06:15:40;6.77;;;2.20;;
69323;SDS011;56470;47.350;8.718;2022-10-14T06:18:05;4.50;;;1.90;;
69323;SDS011;56470;47.350;8.718;2022-10-14T06:20:31;11.77;;;2.60;;
69323;SDS011;56470;47.350;8.718;2022-10-14T06:22:59;6.37;;;2.23;;
69323;SDS011;56470;47.350;8.718;2022-10-14T06:25:25;7.78;;;2.17;;
69323;SDS011;56470;47.350;8.718;2022-10-14T06:27:50;6.93;;;2.63;;
69323;SDS011;56470;47.350;8.718;2022-10-14T06:30:16;3.60;;;2.10;;
69323;SDS011;56470;47.350;8.718;2022-10-14T06:32:41;4.63;;;2.00;;
69323;SDS011;56470;47.350;8.718;2022-10-14T06:35:07;7.83;;;2.37;;
69323;SDS011;56470;47.350;8.718;2022-10-14T06:37:33;6.75;;;2.00;;
69323;SDS011;56470;47.350;8.718;2022-10-14T06:39:58;4.00;;;2.13;;
69323;SDS011;56470;47.350;8.718;2022-10-14T06:42:23;5.13;;;1.98;;
69323;SDS011;56470;47.350;8.718;2022-10-14T06:44:49;4.17;;;2.17;;
69323;SDS011;56470;47.350;8.718;2022-10-14T06:47:14;4.83;;;2.10;;
69323;SDS011;56470;47.350;8.718;2022-10-14T06:49:39;7.37;;;2.00;;
69323;SDS011;56470;47.350;8.718;2022-10-14T06:52:05;3.97;;;2.43;;
69323;SDS011;56470;47.350;8.718;2022-10-14T06:54:30;4.32;;;2.20;;
69323;SDS011;56470;47.350;8.718;2022-10-14T06:56:56;4.60;;;2.03;;
69323;SDS011;56470;47.350;8.718;2022-10-14T06:59:21;7.10;;;2.33;;
69323;SDS011;56470;47.350;8.718;2022-10-14T07:01:46;5.17;;;2.00;;
69323;SDS011;56470;47.350;8.718;2022-10-14T07:04:12;4.53;;;2.10;;
69323;SDS011;56470;47.350;8.718;2022-10-14T07:06:37;3.97;;;2.07;;
69323;SDS011;56470;47.350;8.718;2022-10-14T07:09:03;4.13;;;1.88;;
69323;SDS011;56470;47.350;8.718;2022-10-14T07:11:29;4.87;;;2.30;;
69323;SDS011;56470;47.350;8.718;2022-10-14T07:13:54;5.38;;;2.60;;
69323;SDS011;56470;47.350;8.718;2022-10-14T07:16:20;4.28;;;2.63;;
69323;SDS011;56470;47.350;8.718;2022-10-14T07:18:45;4.50;;;1.90;;
69323;SDS011;56470;47.350;8.718;2022-10-14T07:21:11;3.60;;;2.10;;
69323;SDS011;56470;47.350;8.718;2022-10-14T07:23:37;3.83;;;2.30;;
69323;SDS011;56470;47.350;8.718;2022-10-14T07:26:03;4.47;;;2.35;;
69323;SDS011;56470;47.350;8.718;2022-10-14T07:28:29;4.07;;;1.73;;
69323;SDS011;56470;47.350;8.718;2022-10-14T07:30:58;2.47;;;1.20;;
69323;SDS011;56470;47.350;8.718;2022-10-14T07:33:31;5.07;;;2.00;;
69323;SDS011;56470;47.350;8.718;2022-10-14T07:36:02;6.30;;;1.80;;
69323;SDS011;56470;47.350;8.718;2022-10-14T07:38:28;3.85;;;1.58;;
69323;SDS011;56470;47.350;8.718;2022-10-14T07:40:55;4.37;;;2.00;;
69323;SDS011;56470;47.350;8.718;2022-10-14T07:43:25;4.72;;;2.00;;
69323;SDS011;56470;47.350;8.718;2022-10-14T07:45:51;3.33;;;1.77;;
69323;SDS011;56470;47.350;8.718;2022-10-14T07:48:24;4.95;;;1.73;;
69323;SDS011;56470;47.350;8.718;2022-10-14T07:50:49;6.80;;;1.60;;
69323;SDS011;56470;47.350;8.718;2022-10-14T07:53:14;2.90;;;1.57;;
69323;SDS011;56470;47.350;8.718;2022-10-14T07:55:43;2.50;;;1.43;;
69323;SDS011;56470;47.350;8.718;2022-10-14T07:58:17;3.28;;;1.88;;
69323;SDS011;56470;47.350;8.718;2022-10-14T08:00:44;3.05;;;1.40;;
69323;SDS011;56470;47.350;8.718;2022-10-14T08:03:10;5.50;;;2.20;;
69323;SDS011;56470;47.350;8.718;2022-10-14T08:05:35;3.97;;;1.90;;
69323;SDS011;56470;47.350;8.718;2022-10-14T08:08:00;6.80;;;2.50;;
69323;SDS011;56470;47.350;8.718;2022-10-14T08:10:26;4.63;;;2.03;;
69323;SDS011;56470;47.350;8.718;2022-10-14T08:12:51;5.07;;;2.17;;
69323;SDS011;56470;47.350;8.718;2022-10-14T08:15:17;2.37;;;1.23;;
69323;SDS011;56470;47.350;8.718;2022-10-14T08:17:42;4.00;;;2.03;;
69323;SDS011;56470;47.350;8.718;2022-10-14T08:20:07;3.10;;;1.73;;
69323;SDS011;56470;47.350;8.718;2022-10-14T08:22:33;5.30;;;1.83;;
69323;SDS011;56470;47.350;8.718;2022-10-14T08:24:58;4.17;;;2.40;;
69323;SDS011;56470;47.350;8.718;2022-10-14T08:27:23;5.93;;;1.70;;
69323;SDS011;56470;47.350;8.718;2022-10-14T08:29:50;8.27;;;2.75;;
69323;SDS011;56470;47.350;8.718;2022-10-14T08:32:16;11.70;;;3.10;;
69323;SDS011;56470;47.350;8.718;2022-10-14T08:34:41;3.93;;;2.23;;
69323;SDS011;56470;47.350;8.718;2022-10-14T08:37:08;9.02;;;2.08;;
69323;SDS011;56470;47.350;8.718;2022-10-14T08:39:35;5.20;;;2.00;;
69323;SDS011;56470;47.350;8.718;2022-10-14T08:44:27;5.73;;;2.43;;
69323;SDS011;56470;47.350;8.718;2022-10-14T08:47:06;7.67;;;3.00;;
69323;SDS011;56470;47.350;8.718;2022-10-14T08:49:53;10.70;;;2.50;;
69323;SDS011;56470;47.350;8.718;2022-10-14T08:52:29;3.38;;;1.55;;
69323;SDS011;56470;47.350;8.718;2022-10-14T08:55:10;4.15;;;1.70;;
69323;SDS011;56470;47.350;8.718;2022-10-14T09:01:04;4.60;;;2.70;;
69323;SDS011;56470;47.350;8.718;2022-10-14T09:03:40;6.72;;;2.58;;
69323;SDS011;56470;47.350;8.718;2022-10-14T09:06:09;4.53;;;2.28;;
69323;SDS011;56470;47.350;8.718;2022-10-14T09:08:40;5.57;;;2.58;;
69323;SDS011;56470;47.350;8.718;2022-10-14T09:11:12;6.78;;;3.13;;
69323;SDS011;56470;47.350;8.718;2022-10-14T09:13:40;8.83;;;2.53;;
69323;SDS011;56470;47.350;8.718;2022-10-14T09:16:30;3.80;;;2.08;;
69323;SDS011;56470;47.350;8.718;2022-10-14T09:18:58;4.82;;;2.30;;
69323;SDS011;56470;47.350;8.718;2022-10-14T09:21:40;5.28;;;2.13;;
69323;SDS011;56470;47.350;8.718;2022-10-14T09:26:44;3.97;;;2.30;;
69323;SDS011;56470;47.350;8.718;2022-10-14T09:29:22;6.28;;;2.22;;
69323;SDS011;56470;47.350;8.718;2022-10-14T09:31:48;3.38;;;1.77;;
69323;SDS011;56470;47.350;8.718;2022-10-14T09:34:17;4.93;;;2.40;;
69323;SDS011;56470;47.350;8.718;2022-10-14T09:36:47;5.20;;;2.22;;
69323;SDS011;56470;47.350;8.718;2022-10-14T09:39:14;5.97;;;2.25;;
69323;SDS011;56470;47.350;8.718;2022-10-14T09:41:41;4.00;;;2.30;;
69323;SDS011;56470;47.350;8.718;2022-10-14T09:46:45;5.70;;;2.73;;
69323;SDS011;56470;47.350;8.718;2022-10-14T09:49:19;6.85;;;3.28;;
69323;SDS011;56470;47.350;8.718;2022-10-14T09:51:53;5.53;;;2.35;;
69323;SDS011;56470;47.350;8.718;2022-10-14T09:54:22;6.30;;;2.45;;
69323;SDS011;56470;47.350;8.718;2022-10-14T09:56:57;4.55;;;2.42;;
69323;SDS011;56470;47.350;8.718;2022-10-14T09:59:25;5.13;;;2.13;;
69323;SDS011;56470;47.350;8.718;2022-10-14T10:01:52;5.05;;;1.95;;
69323;SDS011;56470;47.350;8.718;2022-10-14T10:04:33;3.15;;;1.85;;
69323;SDS011;56470;47.350;8.718;2022-10-14T10:07:05;4.13;;;2.10;;
69323;SDS011;56470;47.350;8.718;2022-10-14T10:09:52;4.50;;;2.07;;
69323;SDS011;56470;47.350;8.718;2022-10-14T10:12:23;4.93;;;2.17;;
69323;SDS011;56470;47.350;8.718;2022-10-14T10:14:56;4.50;;;2.40;;
69323;SDS011;56470;47.350;8.718;2022-10-14T10:17:23;3.97;;;1.83;;
69323;SDS011;56470;47.350;8.718;2022-10-14T10:19:51;3.28;;;1.77;;
69323;SDS011;56470;47.350;8.718;2022-10-14T10:22:31;5.23;;;1.70;;
69323;SDS011;56470;47.350;8.718;2022-10-14T10:27:33;5.28;;;2.17;;
69323;SDS011;56470;47.350;8.718;2022-10-14T10:32:40;5.18;;;1.67;;
69323;SDS011;56470;47.350;8.718;2022-10-14T10:46:09;6.25;;;2.53;;
69323;SDS011;56470;47.350;8.718;2022-10-14T10:49:04;5.40;;;2.27;;
69323;SDS011;56470;47.350;8.718;2022-10-14T10:54:34;6.15;;;2.92;;
69323;SDS011;56470;47.350;8.718;2022-10-14T11:11:33;5.97;;;2.38;;
69323;SDS011;56470;47.350;8.718;2022-10-14T11:17:02;5.33;;;2.47;;
69323;SDS011;56470;47.350;8.718;2022-10-14T11:36:43;5.70;;;2.97;;
69323;SDS011;56470;47.350;8.718;2022-10-14T11:39:25;6.18;;;2.28;;
69323;SDS011;56470;47.350;8.718;2022-10-14T11:42:25;6.38;;;2.55;;
69323;SDS011;56470;47.350;8.718;2022-10-14T11:48:16;5.00;;;2.35;;
69323;SDS011;56470;47.350;8.718;2022-10-14T11:51:01;5.78;;;2.60;;
69323;SDS011;56470;47.350;8.718;2022-10-14T11:53:51;6.28;;;2.42;;
69323;SDS011;56470;47.350;8.718;2022-10-14T11:56:36;4.88;;;2.58;;
69323;SDS011;56470;47.350;8.718;2022-10-14T11:59:08;6.50;;;2.73;;
69323;SDS011;56470;47.350;8.718;2022-10-14T12:01:56;5.75;;;2.45;;
69323;SDS011;56470;47.350;8.718;2022-10-14T12:04:32;6.25;;;2.97;;
69323;SDS011;56470;47.350;8.718;2022-10-14T12:07:17;10.57;;;2.88;;
69323;SDS011;56470;47.350;8.718;2022-10-14T12:12:21;6.67;;;2.43;;
69323;SDS011;56470;47.350;8.718;2022-10-14T12:15:00;4.88;;;2.70;;
69323;SDS011;56470;47.350;8.718;2022-10-14T12:20:00;8.23;;;3.00;;
69323;SDS011;56470;47.350;8.718;2022-10-14T12:22:31;6.10;;;2.65;;
69323;SDS011;56470;47.350;8.718;2022-10-14T12:25:02;5.37;;;2.50;;
69323;SDS011;56470;47.350;8.718;2022-10-14T12:27:31;5.20;;;2.70;;
69323;SDS011;56470;47.350;8.718;2022-10-14T12:29:57;9.95;;;3.45;;
69323;SDS011;56470;47.350;8.718;2022-10-14T12:32:26;5.10;;;2.80;;
69323;SDS011;56470;47.350;8.718;2022-10-14T12:34:55;6.88;;;3.00;;
69323;SDS011;56470;47.350;8.718;2022-10-14T12:40:15;6.80;;;2.88;;
69323;SDS011;56470;47.350;8.718;2022-10-14T12:45:14;6.53;;;3.40;;
69323;SDS011;56470;47.350;8.718;2022-10-14T12:47:49;7.00;;;3.40;;
69323;SDS011;56470;47.350;8.718;2022-10-14T12:50:30;8.10;;;3.88;;
69323;SDS011;56470;47.350;8.718;2022-10-14T12:53:01;8.20;;;3.00;;
69323;SDS011;56470;47.350;8.718;2022-10-14T12:55:34;6.10;;;3.20;;
69323;SDS011;56470;47.350;8.718;2022-10-14T12:58:11;5.75;;;2.70;;
69323;SDS011;56470;47.350;8.718;2022-10-14T13:00:46;6.57;;;3.10;;
69323;SDS011;56470;47.350;8.718;2022-10-14T13:03:19;5.57;;;2.72;;
69323;SDS011;56470;47.350;8.718;2022-10-14T13:05:50;5.88;;;2.90;;
69323;SDS011;56470;47.350;8.718;2022-10-14T13:18:33;5.07;;;2.55;;
69323;SDS011;56470;47.350;8.718;2022-10-14T13:21:09;6.38;;;3.38;;
69323;SDS011;56470;47.350;8.718;2022-10-14T13:23:48;6.18;;;3.20;;
69323;SDS011;56470;47.350;8.718;2022-10-14T13:26:22;5.37;;;2.23;;
69323;SDS011;56470;47.350;8.718;2022-10-14T13:29:11;6.60;;;2.90;;
69323;SDS011;56470;47.350;8.718;2022-10-14T13:31:52;6.35;;;2.58;;
69323;SDS011;56470;47.350;8.718;2022-10-14T13:40:05;6.33;;;3.60;;
69323;SDS011;56470;47.350;8.718;2022-10-14T13:42:34;6.57;;;2.85;;
69323;SDS011;56470;47.350;8.718;2022-10-14T13:45:04;6.10;;;2.67;;
69323;SDS011;56470;47.350;8.718;2022-10-14T13:47:33;5.78;;;2.67;;
69323;SDS011;56470;47.350;8.718;2022-10-14T13:50:00;7.93;;;3.08;;
69323;SDS011;56470;47.350;8.718;2022-10-14T13:52:28;6.03;;;2.60;;
69323;SDS011;56470;47.350;8.718;2022-10-14T13:55:30;5.43;;;2.70;;
69323;SDS011;56470;47.350;8.718;2022-10-14T13:58:06;5.63;;;2.97;;
69323;SDS011;56470;47.350;8.718;2022-10-14T14:00:36;6.15;;;3.38;;
69323;SDS011;56470;47.350;8.718;2022-10-14T14:03:10;4.97;;;2.67;;
69323;SDS011;56470;47.350;8.718;2022-10-14T14:05:47;6.17;;;2.63;;
69323;SDS011;56470;47.350;8.718;2022-10-14T14:08:14;5.60;;;2.65;;
69323;SDS011;56470;47.350;8.718;2022-10-14T14:10:49;5.78;;;3.13;;
69323;SDS011;56470;47.350;8.718;2022-10-14T14:13:19;6.70;;;2.70;;
69323;SDS011;56470;47.350;8.718;2022-10-14T14:15:49;5.40;;;2.47;;
69323;SDS011;56470;47.350;8.718;2022-10-14T14:18:32;8.10;;;3.20;;
69323;SDS011;56470;47.350;8.718;2022-10-14T14:21:04;4.95;;;2.85;;
69323;SDS011;56470;47.350;8.718;2022-10-14T14:23:30;5.68;;;3.30;;
69323;SDS011;56470;47.350;8.718;2022-10-14T14:25:56;5.97;;;3.00;;
69323;SDS011;56470;47.350;8.718;2022-10-14T14:28:21;7.05;;;3.25;;
69323;SDS011;56470;47.350;8.718;2022-10-14T14:30:54;6.53;;;3.20;;
69323;SDS011;56470;47.350;8.718;2022-10-14T14:33:29;6.50;;;2.93;;
69323;SDS011;56470;47.350;8.718;2022-10-14T14:35:57;8.77;;;3.03;;
69323;SDS011;56470;47.350;8.718;2022-10-14T14:38:26;5.65;;;2.70;;
69323;SDS011;56470;47.350;8.718;2022-10-14T14:41:03;7.60;;;3.08;;
69323;SDS011;56470;47.350;8.718;2022-10-14T14:43:43;5.95;;;3.17;;
69323;SDS011;56470;47.350;8.718;2022-10-14T14:46:14;6.80;;;3.07;;
69323;SDS011;56470;47.350;8.718;2022-10-14T14:48:43;7.55;;;3.15;;
69323;SDS011;56470;47.350;8.718;2022-10-14T14:51:11;7.28;;;3.22;;
69323;SDS011;56470;47.350;8.718;2022-10-14T14:53:37;7.15;;;3.50;;
69323;SDS011;56470;47.350;8.718;2022-10-14T14:56:04;10.10;;;3.87;;
69323;SDS011;56470;47.350;8.718;2022-10-14T14:58:36;5.85;;;3.25;;
69323;SDS011;56470;47.350;8.718;2022-10-14T15:01:14;6.78;;;3.83;;
69323;SDS011;56470;47.350;8.718;2022-10-14T15:04:00;8.82;;;3.20;;
69323;SDS011;56470;47.350;8.718;2022-10-14T15:06:28;7.65;;;3.53;;
69323;SDS011;56470;47.350;8.718;2022-10-14T15:08:54;7.37;;;3.80;;
69323;SDS011;56470;47.350;8.718;2022-10-14T15:11:21;7.22;;;3.67;;
69323;SDS011;56470;47.350;8.718;2022-10-14T15:13:54;7.63;;;3.63;;
69323;SDS011;56470;47.350;8.718;2022-10-14T15:16:30;7.57;;;3.95;;
69323;SDS011;56470;47.350;8.718;2022-10-14T15:19:13;10.33;;;3.93;;
69323;SDS011;56470;47.350;8.718;2022-10-14T15:22:29;8.13;;;3.78;;
69323;SDS011;56470;47.350;8.718;2022-10-14T15:24:56;6.30;;;3.28;;
69323;SDS011;56470;47.350;8.718;2022-10-14T15:27:29;5.88;;;3.33;;
69323;SDS011;56470;47.350;8.718;2022-10-14T15:33:00;9.53;;;3.90;;
69323;SDS011;56470;47.350;8.718;2022-10-14T15:35:28;8.20;;;3.67;;
69323;SDS011;56470;47.350;8.718;2022-10-14T15:37:54;6.47;;;4.05;;
69323;SDS011;56470;47.350;8.718;2022-10-14T15:40:25;8.17;;;3.30;;
69323;SDS011;56470;47.350;8.718;2022-10-14T15:42:55;8.43;;;3.10;;
69323;SDS011;56470;47.350;8.718;2022-10-14T15:45:21;6.72;;;3.55;;
69323;SDS011;56470;47.350;8.718;2022-10-14T15:47:51;6.73;;;3.17;;
69323;SDS011;56470;47.350;8.718;2022-10-14T15:50:22;9.73;;;4.27;;
69323;SDS011;56470;47.350;8.718;2022-10-14T15:52:52;8.27;;;4.13;;
69323;SDS011;56470;47.350;8.718;2022-10-14T15:55:20;5.65;;;3.05;;
69323;SDS011;56470;47.350;8.718;2022-10-14T15:57:48;6.82;;;3.72;;
69323;SDS011;56470;47.350;8.718;2022-10-14T16:00:16;5.50;;;3.47;;
69323;SDS011;56470;47.350;8.718;2022-10-14T16:02:43;8.60;;;3.30;;
69323;SDS011;56470;47.350;8.718;2022-10-14T16:05:09;7.72;;;3.30;;
69323;SDS011;56470;47.350;8.718;2022-10-14T16:07:35;10.45;;;4.25;;
69323;SDS011;56470;47.350;8.718;2022-10-14T16:10:00;5.63;;;3.40;;
69323;SDS011;56470;47.350;8.718;2022-10-14T16:12:26;6.23;;;3.20;;
69323;SDS011;56470;47.350;8.718;2022-10-14T16:14:51;8.27;;;2.90;;
69323;SDS011;56470;47.350;8.718;2022-10-14T16:17:17;7.03;;;3.10;;
69323;SDS011;56470;47.350;8.718;2022-10-14T16:19:42;5.67;;;2.87;;
69323;SDS011;56470;47.350;8.718;2022-10-14T16:22:08;8.50;;;3.50;;
69323;SDS011;56470;47.350;8.718;2022-10-14T16:24:34;5.32;;;2.88;;
69323;SDS011;56470;47.350;8.718;2022-10-14T16:26:59;7.07;;;3.85;;
69323;SDS011;56470;47.350;8.718;2022-10-14T16:29:25;6.20;;;3.27;;
69323;SDS011;56470;47.350;8.718;2022-10-14T16:31:50;5.67;;;2.73;;
69323;SDS011;56470;47.350;8.718;2022-10-14T16:34:16;7.22;;;3.78;;
69323;SDS011;56470;47.350;8.718;2022-10-14T16:36:43;8.23;;;3.20;;
69323;SDS011;56470;47.350;8.718;2022-10-14T16:39:09;6.55;;;3.70;;
69323;SDS011;56470;47.350;8.718;2022-10-14T16:41:35;6.70;;;3.60;;
69323;SDS011;56470;47.350;8.718;2022-10-14T16:44:01;5.82;;;3.03;;
69323;SDS011;56470;47.350;8.718;2022-10-14T16:46:27;6.47;;;3.35;;
69323;SDS011;56470;47.350;8.718;2022-10-14T16:49:11;8.50;;;4.33;;
69323;SDS011;56470;47.350;8.718;2022-10-14T16:51:38;7.78;;;3.30;;
69323;SDS011;56470;47.350;8.718;2022-10-14T16:54:03;7.28;;;2.95;;
69323;SDS011;56470;47.350;8.718;2022-10-14T16:56:29;8.03;;;3.60;;
69323;SDS011;56470;47.350;8.718;2022-10-14T16:59:13;7.00;;;3.50;;
69323;SDS011;56470;47.350;8.718;2022-10-14T17:01:38;8.07;;;3.97;;
69323;SDS011;56470;47.350;8.718;2022-10-14T17:04:04;8.13;;;3.93;;